Terminal Aerodrome Forecast
Issued by NWS

Home | Current Version | Previous Version | Text Only | Print | Product List | Glossary On
Versions: 1 2 3 4 5 6 7 8 9 10 11 12 13 14 15 16 17 18 19 20
000
FTUS46 KHNX 250324 AAB
TAFFAT
TAF AMD
KFAT 250324Z 2503/2524 15004KT 1SM BR BKN002 OVC004
     FM251100 00000KT 1/4SM FG OVC002
     FM251900 VRB03KT 2SM BR BKN006
     FM252100 VRB04KT 4SM BR SCT006=

USA.gov is the U.S. government's official web portal to all federal, state and local government web resources and services.